Time;durP1;ratioP1;P1;durP2;ratioP2;P2;SDS_P1;SDS_P2;PMS_P1;PMS_P2;Temp;Humidity;BMP_temperature;BMP_pressure;BME280_temperature;BME280_humidity;BME280_pressure;Samples;Min_cycle;Max_cycle;Signal;HPM_P1;HPM_P2
2021/04/16 05:11:05;;;;;;;14.17;7.30;;;21.50;27.10;;;;;;5063353;27;20569;-74
2021/04/16 05:13:31;;;;;;;9.90;6.40;;;20.60;27.10;;;;;;5049088;28;20428;-73
2021/04/16 05:15:57;;;;;;;8.10;6.80;;;20.10;27.80;;;;;;5054917;28;20426;-75
2021/04/16 05:18:22;;;;;;;12.00;7.77;;;19.70;28.30;;;;;;5052574;28;20437;-75
2021/04/16 05:20:48;;;;;;;7.00;5.90;;;19.50;28.80;;;;;;5047329;28;20184;-75
2021/04/16 05:23:14;;;;;;;8.23;6.40;;;19.40;29.20;;;;;;5046977;28;20172;-74
2021/04/16 05:25:40;;;;;;;10.23;5.57;;;19.30;29.50;;;;;;5047030;28;20200;-75
2021/04/16 05:28:06;;;;;;;6.63;6.03;;;19.20;29.40;;;;;;5051429;28;20695;-75
2021/04/16 05:30:31;;;;;;;7.10;6.37;;;19.10;29.40;;;;;;5052812;28;20612;-74
2021/04/16 05:32:57;;;;;;;10.43;6.03;;;19.10;29.80;;;;;;5051571;28;20446;-76
2021/04/16 05:35:22;;;;;;;6.57;5.93;;;19.00;29.80;;;;;;5046578;28;20169;-74
2021/04/16 05:37:48;;;;;;;8.13;5.53;;;19.00;29.90;;;;;;5048729;28;20277;-75
2021/04/16 05:40:14;;;;;;;6.50;5.50;;;19.00;30.00;;;;;;5052466;28;20176;-74
2021/04/16 05:42:40;;;;;;;7.73;5.43;;;19.00;30.10;;;;;;5046553;28;20182;-73
2021/04/16 05:45:06;;;;;;;6.67;5.80;;;19.00;30.00;;;;;;5046811;28;20419;-72
2021/04/16 05:47:32;;;;;;;7.70;5.80;;;19.00;30.00;;;;;;5047498;28;20283;-72
2021/04/16 05:49:58;;;;;;;6.40;5.80;;;19.10;30.00;;;;;;5046342;28;20557;-73
2021/04/16 05:52:24;;;;;;;10.70;6.27;;;19.10;29.90;;;;;;5047595;28;20173;-74
2021/04/16 05:55:05;;;;;;;6.60;6.00;;;19.10;29.90;;;;;;5047390;28;20406;-81
2021/04/16 05:57:31;;;;;;;7.40;6.57;;;19.10;29.80;;;;;;5045718;28;20464;-73
2021/04/16 05:59:56;;;;;;;8.40;5.70;;;19.10;29.70;;;;;;5047078;28;20415;-73
2021/04/16 06:02:27;;;;;;;8.17;6.53;;;19.20;29.60;;;;;;5047388;28;20238;-74
2021/04/16 06:04:53;;;;;;;6.73;6.07;;;19.20;29.60;;;;;;5045325;28;20235;-73
2021/04/16 06:07:20;;;;;;;6.47;4.97;;;19.20;29.50;;;;;;5048977;28;20516;-73
2021/04/16 06:09:46;;;;;;;6.13;5.53;;;19.20;29.40;;;;;;5047290;28;20466;-74
2021/04/16 06:12:12;;;;;;;6.70;5.43;;;19.20;29.40;;;;;;5045882;28;20407;-73
2021/04/16 06:14:39;;;;;;;5.77;5.30;;;19.10;29.40;;;;;;5046396;28;20281;-73
2021/04/16 06:17:05;;;;;;;6.37;5.67;;;19.00;28.50;;;;;;5045606;28;20442;-74
2021/04/16 06:19:30;;;;;;;6.50;5.90;;;19.00;28.60;;;;;;5053629;28;20765;-73
2021/04/16 06:21:56;;;;;;;4.73;4.33;;;18.90;27.70;;;;;;5035222;28;20180;-74
2021/04/16 06:24:21;;;;;;;5.53;4.90;;;18.90;27.20;;;;;;5040156;28;20625;-74
2021/04/16 06:26:47;;;;;;;4.90;4.50;;;18.90;26.60;;;;;;5032880;28;20204;-77
2021/04/16 06:29:12;;;;;;;5.83;5.23;;;18.90;26.50;;;;;;5031940;28;20216;-77
2021/04/16 06:31:38;;;;;;;4.53;4.20;;;18.90;26.20;;;;;;5036109;28;20518;-75
2021/04/16 06:34:03;;;;;;;4.60;4.10;;;19.00;26.10;;;;;;5032633;28;20183;-74
2021/04/16 06:36:29;;;;;;;4.60;4.30;;;19.00;25.70;;;;;;5031954;28;20220;-75
2021/04/16 06:39:38;;;;;;;5.53;4.07;;;19.10;25.40;;;;;;5032414;28;20183;-74
2021/04/16 06:42:11;;;;;;;5.13;4.60;;;19.20;25.30;;;;;;5033863;28;20173;-74
2021/04/16 06:44:37;;;;;;;5.07;4.57;;;19.30;25.40;;;;;;5033810;28;20451;-75
2021/04/16 06:47:31;;;;;;;4.90;4.50;;;19.40;25.50;;;;;;5035479;28;20454;-73
2021/04/16 06:49:58;;;;;;;4.30;3.93;;;19.40;25.80;;;;;;5031487;28;20473;-73
2021/04/16 06:52:32;;;;;;;5.73;4.37;;;19.40;26.00;;;;;;5035293;28;20418;-75
2021/04/16 06:55:12;;;;;;;5.73;3.70;;;19.50;26.10;;;;;;5035249;28;20427;-73
2021/04/16 06:57:53;;;;;;;5.50;3.87;;;19.50;26.10;;;;;;5035117;28;20435;-73
2021/04/16 07:00:40;;;;;;;3.97;3.67;;;19.50;26.30;;;;;;4993005;28;20456;-73
2021/04/16 07:03:27;;;;;;;4.00;3.63;;;19.50;26.40;;;;;;5038954;28;20469;-74
2021/04/16 07:06:11;;;;;;;4.87;4.10;;;19.40;26.50;;;;;;5042752;28;20950;-74
2021/04/16 07:08:50;;;;;;;4.43;3.80;;;19.40;26.50;;;;;;5042192;28;20814;-74
2021/04/16 07:11:26;;;;;;;4.40;4.00;;;19.40;26.70;;;;;;5031210;28;20427;-74
2021/04/16 07:13:52;;;;;;;4.80;3.90;;;19.30;26.90;;;;;;5030227;28;20408;-74
2021/04/16 07:16:21;;;;;;;5.53;3.80;;;19.20;27.00;;;;;;5031461;28;20507;-73
2021/04/16 07:18:50;;;;;;;4.47;4.07;;;19.20;27.20;;;;;;5032071;28;20885;-77
2021/04/16 07:21:19;;;;;;;6.63;4.60;;;19.20;27.30;;;;;;5032634;28;20994;-74
2021/04/16 07:23:50;;;;;;;6.40;4.77;;;19.20;27.20;;;;;;5030333;28;20466;-74
2021/04/16 07:26:33;;;;;;;7.93;4.53;;;19.20;27.30;;;;;;5031050;28;20423;-74
2021/04/16 07:28:59;;;;;;;8.00;4.30;;;19.10;27.20;;;;;;5029748;28;20411;-74
2021/04/16 07:31:41;;;;;;;6.80;4.20;;;19.10;27.50;;;;;;5028698;28;20426;-74
2021/04/16 07:34:28;;;;;;;5.00;4.40;;;19.00;27.60;;;;;;5028569;28;20191;-73
2021/04/16 07:37:10;;;;;;;7.60;4.97;;;19.00;27.60;;;;;;5028664;28;20414;-73
2021/04/16 07:39:42;;;;;;;4.95;4.50;;;18.90;27.70;;;;;;5030702;28;20757;-74
2021/04/16 07:42:14;;;;;;;4.50;4.20;;;18.90;27.80;;;;;;5031051;28;20665;-73
2021/04/16 07:44:56;;;;;;;7.83;4.40;;;18.90;27.80;;;;;;5031350;28;20416;-74
2021/04/16 07:47:25;;;;;;;4.20;3.80;;;18.90;28.00;;;;;;5031002;28;20439;-73
2021/04/16 07:50:00;;;;;;;4.03;3.70;;;18.80;27.90;;;;;;5030836;28;20447;-73
2021/04/16 07:52:36;;;;;;;4.10;3.73;;;18.80;27.90;;;;;;5031352;28;20419;-73
2021/04/16 07:55:13;;;;;;;4.10;3.70;;;18.80;28.10;;;;;;5031167;28;20824;-73
2021/04/16 07:57:41;;;;;;;4.80;4.27;;;18.70;28.00;;;;;;5030800;28;20958;-73
2021/04/16 08:00:22;;;;;;;5.10;3.90;;;18.70;28.20;;;;;;5031021;28;20930;-73
2021/04/16 08:03:02;;;;;;;4.70;4.30;;;18.70;28.40;;;;;;5031137;28;20411;-73
2021/04/16 08:05:49;;;;;;;6.03;3.87;;;18.70;28.30;;;;;;5029473;28;20411;-73
2021/04/16 08:08:17;;;;;;;5.20;3.50;;;18.70;28.40;;;;;;5031994;28;20411;-73
2021/04/16 08:10:46;;;;;;;5.47;4.47;;;18.70;28.40;;;;;;5031724;28;20497;-72
2021/04/16 08:13:25;;;;;;;3.73;3.43;;;18.70;28.40;;;;;;5032051;28;20408;-71
2021/04/16 08:15:51;;;;;;;3.80;3.60;;;18.70;28.50;;;;;;5031130;28;20453;-71
2021/04/16 08:18:30;;;;;;;5.80;3.73;;;18.60;28.50;;;;;;5030963;28;20412;-72
2021/04/16 08:21:07;;;;;;;3.60;3.30;;;18.60;28.60;;;;;;5030608;28;20408;-72
2021/04/16 08:24:06;;;;;;;3.37;3.10;;;18.60;28.70;;;;;;5030912;28;20984;-74
2021/04/16 08:26:43;;;;;;;4.03;3.63;;;18.60;28.70;;;;;;5029914;28;20469;-72
2021/04/16 08:29:22;;;;;;;4.40;3.80;;;18.60;28.60;;;;;;5030575;28;20554;-71
2021/04/16 08:32:10;;;;;;;3.83;3.50;;;18.70;28.60;;;;;;5030694;28;20417;-71
2021/04/16 08:34:43;;;;;;;4.50;4.20;;;18.70;28.60;;;;;;5030184;28;20410;-70
2021/04/16 08:37:15;;;;;;;4.10;3.70;;;18.80;28.50;;;;;;5030140;28;20427;-72
2021/04/16 08:39:44;;;;;;;4.10;3.80;;;18.90;28.40;;;;;;5030136;28;20411;-70
2021/04/16 08:42:12;;;;;;;3.97;3.67;;;18.90;28.40;;;;;;5029845;28;20411;-72
2021/04/16 08:44:48;;;;;;;3.80;3.50;;;18.90;28.30;;;;;;5029983;28;20494;-70
2021/04/16 08:48:09;;;;;;;3.77;3.47;;;19.00;28.20;;;;;;5030008;28;20427;-71
2021/04/16 08:50:39;;;;;;;3.67;3.47;;;19.00;28.20;;;;;;5044636;28;21120;-70
2021/04/16 08:53:04;;;;;;;3.90;3.70;;;19.00;28.20;;;;;;5041688;28;20438;-73
2021/04/16 08:55:35;;;;;;;4.70;4.40;;;19.00;28.20;;;;;;5042971;28;20507;-71
2021/04/16 08:58:18;;;;;;;5.33;3.43;;;19.00;28.10;;;;;;5030156;28;20304;-71
2021/04/16 09:00:49;;;;;;;6.10;3.80;;;19.00;28.10;;;;;;5030028;28;20939;-71
2021/04/16 09:03:24;;;;;;;4.43;4.03;;;19.00;28.20;;;;;;5028831;28;20565;-71
2021/04/16 09:06:03;;;;;;;3.43;3.23;;;19.00;28.20;;;;;;5029976;28;20431;-71
2021/04/16 09:08:37;;;;;;;4.93;3.70;;;19.00;28.20;;;;;;5029919;28;20415;-71
2021/04/16 09:11:04;;;;;;;5.10;4.10;;;19.00;28.30;;;;;;5029512;28;20462;-71
2021/04/16 09:13:33;;;;;;;4.33;3.93;;;19.10;28.30;;;;;;5030063;28;20414;-71
2021/04/16 09:16:19;;;;;;;4.10;3.70;;;19.10;28.20;;;;;;5028913;28;20431;-71
2021/04/16 09:18:50;;;;;;;8.20;3.80;;;19.20;28.30;;;;;;5029658;28;20404;-71
2021/04/16 09:21:23;;;;;;;3.60;3.30;;;19.20;28.20;;;;;;5030110;28;20529;-71
2021/04/16 09:23:53;;;;;;;4.73;3.57;;;19.30;28.20;;;;;;5030163;28;20776;-71
2021/04/16 09:26:44;;;;;;;3.77;3.47;;;19.30;28.10;;;;;;5029120;28;20993;-71
2021/04/16 09:29:34;;;;;;;3.97;3.67;;;19.30;28.10;;;;;;5029717;28;20447;-70
2021/04/16 09:32:04;;;;;;;7.17;4.50;;;19.30;28.10;;;;;;5029847;28;20403;-71
2021/04/16 09:34:50;;;;;;;4.00;3.70;;;19.30;28.00;;;;;;5029554;28;20411;-70
2021/04/16 09:37:41;;;;;;;5.60;3.90;;;19.30;28.10;;;;;;5029696;28;20766;-71
2021/04/16 09:40:30;;;;;;;4.10;3.73;;;19.30;28.10;;;;;;5029282;28;20414;-71
2021/04/16 09:43:11;;;;;;;4.67;3.83;;;19.30;28.70;;;;;;5030051;28;20424;-70
2021/04/16 09:45:49;;;;;;;3.90;3.40;;;19.30;28.10;;;;;;5029680;28;20757;-71
2021/04/16 09:48:17;;;;;;;3.40;3.20;;;19.40;28.10;;;;;;5029449;28;20779;-71
2021/04/16 09:50:49;;;;;;;3.53;3.33;;;19.40;28.20;;;;;;5029589;28;20455;-71
2021/04/16 09:53:24;;;;;;;4.57;3.43;;;19.40;28.20;;;;;;5029787;28;20407;-71
2021/04/16 09:55:57;;;;;;;3.67;3.47;;;19.40;28.10;;;;;;5029819;28;21021;-71
2021/04/16 09:58:31;;;;;;;4.23;3.40;;;19.40;28.10;;;;;;5033481;28;20525;-71
2021/04/16 10:00:57;;;;;;;4.07;3.20;;;19.50;28.10;;;;;;5037140;28;20407;-70
2021/04/16 10:03:24;;;;;;;3.47;3.27;;;19.50;28.20;;;;;;5031693;28;20798;-71
2021/04/16 10:05:52;;;;;;;5.30;3.60;;;19.50;28.20;;;;;;5032991;28;20620;-71
2021/04/16 10:08:28;;;;;;;4.37;3.43;;;19.50;28.20;;;;;;5033137;28;20411;-70
2021/04/16 10:11:02;;;;;;;3.17;2.97;;;19.50;28.20;;;;;;5032851;28;20467;-71
2021/04/16 10:13:35;;;;;;;3.53;3.33;;;19.50;28.20;;;;;;5033455;28;20398;-71
2021/04/16 10:16:01;;;;;;;2.83;2.73;;;19.50;28.20;;;;;;5032943;28;20510;-71
2021/04/16 10:18:31;;;;;;;3.30;2.87;;;19.60;28.40;;;;;;5032761;28;20420;-71
2021/04/16 10:21:03;;;;;;;4.77;2.70;;;19.60;28.30;;;;;;5033251;28;20416;-71
2021/04/16 10:23:40;;;;;;;3.13;2.83;;;19.60;28.30;;;;;;5032986;28;20420;-71
2021/04/16 12:38:33;;;;;;;83.10;68.70;;;19.60;28.20;;;;;;5010470;28;20449;-72
2021/04/16 12:41:01;;;;;;;84.03;68.83;;;19.60;28.20;;;;;;5010687;28;20408;-72
2021/04/16 12:43:28;;;;;;;71.43;63.23;;;19.60;28.10;;;;;;5021309;28;20427;-73
2021/04/16 12:45:55;;;;;;;71.87;62.17;;;19.60;28.10;;;;;;5033527;28;20446;-72
2021/04/16 12:48:22;;;;;;;68.47;60.67;;;19.70;28.10;;;;;;5032710;28;20490;-72
2021/04/16 12:50:49;;;;;;;75.23;60.90;;;19.70;28.10;;;;;;5030028;28;20801;-72
2021/04/16 12:53:14;;;;;;;71.67;60.00;;;19.70;28.10;;;;;;5037610;28;21022;-72
2021/04/16 12:55:40;;;;;;;72.23;60.97;;;19.70;28.00;;;;;;5028575;28;20533;-76
2021/04/16 12:58:08;;;;;;;69.70;60.07;;;19.70;28.00;;;;;;5028919;28;20653;-71
2021/04/16 13:00:43;;;;;;;62.97;56.30;;;19.70;28.00;;;;;;5029781;28;20177;-71
2021/04/16 13:03:19;;;;;;;65.60;54.13;;;19.70;28.00;;;;;;5030100;28;20759;-71
2021/04/16 13:05:47;;;;;;;62.13;53.90;;;19.70;28.00;;;;;;5030748;28;20995;-72
2021/04/16 13:08:13;;;;;;;57.03;49.27;;;19.70;27.90;;;;;;5036060;28;20442;-72
2021/04/16 13:10:38;;;;;;;57.83;50.67;;;19.70;27.90;;;;;;5039354;28;20465;-72
2021/04/16 13:13:04;;;;;;;58.50;49.87;;;19.70;27.90;;;;;;5029829;28;20411;-71
2021/04/16 13:15:30;;;;;;;57.67;48.80;;;19.80;27.90;;;;;;5031302;28;20180;-72
2021/04/16 13:18:03;;;;;;;55.70;47.97;;;19.80;27.90;;;;;;5033128;28;20585;-72
2021/04/16 13:20:29;;;;;;;56.87;46.67;;;19.70;27.80;;;;;;5029214;28;20191;-72
2021/04/16 13:22:55;;;;;;;52.00;46.30;;;19.70;27.60;;;;;;5031587;28;20418;-72
2021/04/16 13:25:27;;;;;;;58.13;47.27;;;19.70;27.80;;;;;;5035429;28;20266;-72
2021/04/16 13:27:53;;;;;;;51.40;45.27;;;19.70;27.70;;;;;;5029767;28;20439;-72
2021/04/16 13:30:23;;;;;;;48.43;43.23;;;19.70;27.80;;;;;;5029508;28;20493;-72
2021/04/16 13:32:52;;;;;;;49.60;42.60;;;19.70;27.90;;;;;;5040489;28;20180;-72
2021/04/16 13:35:28;;;;;;;46.57;41.23;;;19.70;27.80;;;;;;5033107;28;20411;-72
2021/04/16 13:37:54;;;;;;;46.70;41.43;;;19.70;27.80;;;;;;5033586;28;20407;-72
2021/04/16 13:40:20;;;;;;;46.20;39.70;;;19.70;27.60;;;;;;5040217;28;20433;-72
2021/04/16 13:42:45;;;;;;;44.50;39.93;;;19.70;28.30;;;;;;5041631;28;20180;-71
2021/04/16 13:45:12;;;;;;;44.90;37.70;;;19.70;27.70;;;;;;5038659;28;20423;-72
2021/04/16 13:47:42;;;;;;;43.37;38.50;;;19.70;27.80;;;;;;5035302;28;20204;-72
2021/04/16 13:50:10;;;;;;;42.67;35.20;;;19.80;27.80;;;;;;5035698;28;20466;-71
2021/04/16 13:52:36;;;;;;;45.77;36.27;;;19.70;27.80;;;;;;5034245;28;20422;-71
2021/04/16 13:55:02;;;;;;;47.57;36.10;;;19.80;27.80;;;;;;5035163;28;20411;-72
2021/04/16 13:57:28;;;;;;;41.57;35.70;;;19.80;27.80;;;;;;5033255;28;20201;-73
2021/04/16 13:59:53;;;;;;;41.73;35.00;;;19.80;27.90;;;;;;5042618;28;20458;-73
2021/04/16 14:02:25;;;;;;;42.07;34.50;;;19.70;27.80;;;;;;5033384;28;20188;-73
2021/04/16 14:04:52;;;;;;;40.07;34.67;;;19.60;28.50;;;;;;5031755;28;20290;-73
2021/04/16 14:07:18;;;;;;;40.60;34.70;;;19.50;28.00;;;;;;5031390;28;20430;-73
2021/04/16 14:09:44;;;;;;;39.33;32.57;;;19.40;28.10;;;;;;5030727;28;20536;-73
2021/04/16 14:12:11;;;;;;;43.27;33.07;;;19.40;28.20;;;;;;5032594;28;20461;-73
2021/04/16 14:14:37;;;;;;;38.90;32.37;;;19.30;28.20;;;;;;5032757;28;20415;-73
2021/04/16 14:17:10;;;;;;;37.13;33.03;;;19.30;28.20;;;;;;5032730;28;20518;-73
2021/04/16 14:19:52;;;;;;;37.30;32.90;;;19.20;28.30;;;;;;5033188;28;20807;-74
2021/04/16 14:22:43;;;;;;;33.83;30.13;;;19.20;28.40;;;;;;5031389;28;20423;-74
2021/04/16 14:25:19;;;;;;;35.53;31.20;;;19.20;28.40;;;;;;5033128;28;20457;-76
2021/04/16 14:27:45;;;;;;;38.17;32.43;;;19.10;28.40;;;;;;5032525;28;20431;-74
2021/04/16 14:30:17;;;;;;;34.53;30.83;;;19.10;28.40;;;;;;5032750;28;20520;-74
2021/04/16 14:32:42;;;;;;;34.90;30.20;;;19.10;28.40;;;;;;5032661;28;20192;-74
2021/04/16 14:35:09;;;;;;;34.43;29.63;;;19.10;28.40;;;;;;5032362;28;20411;-73
2021/04/16 14:37:35;;;;;;;32.83;29.10;;;19.00;28.40;;;;;;5032307;28;20246;-74
2021/04/16 14:40:00;;;;;;;34.00;30.40;;;19.00;28.40;;;;;;5032577;28;20411;-74
2021/04/16 14:42:26;;;;;;;32.80;29.27;;;19.00;28.40;;;;;;5031940;28;20234;-74
2021/04/16 14:44:52;;;;;;;35.53;31.00;;;19.00;28.50;;;;;;5031013;28;20181;-74
2021/04/16 14:47:17;;;;;;;30.07;26.87;;;19.00;28.50;;;;;;5032143;28;20200;-73
2021/04/16 14:49:43;;;;;;;30.93;27.80;;;19.00;28.50;;;;;;5032204;28;20275;-73
2021/04/16 14:52:13;;;;;;;30.37;27.07;;;19.00;28.40;;;;;;5031941;28;20644;-73
2021/04/16 14:54:45;;;;;;;32.63;28.07;;;19.10;28.30;;;;;;5032164;28;20169;-73
2021/04/16 14:57:35;;;;;;;34.93;28.90;;;19.20;28.30;;;;;;5032257;28;20431;-73
2021/04/16 15:00:04;;;;;;;29.00;25.80;;;19.20;28.80;;;;;;5030627;28;20411;-73
2021/04/16 15:02:30;;;;;;;29.43;26.43;;;19.30;28.20;;;;;;5031923;28;20502;-73
2021/04/16 15:04:55;;;;;;;29.60;26.47;;;19.30;28.70;;;;;;5030840;28;21001;-73
2021/04/16 15:07:26;;;;;;;28.80;25.90;;;19.30;28.10;;;;;;5031469;28;20216;-73
2021/04/16 15:09:56;;;;;;;29.63;26.63;;;19.30;28.00;;;;;;5032033;28;20303;-73
2021/04/16 15:12:24;;;;;;;30.67;27.37;;;19.30;28.00;;;;;;5031934;28;20412;-74
2021/04/16 15:14:53;;;;;;;29.23;25.97;;;19.30;27.90;;;;;;5031889;28;20745;-74
2021/04/16 15:17:19;;;;;;;27.80;25.00;;;19.30;27.90;;;;;;5031695;28;20428;-74
2021/04/16 15:19:47;;;;;;;28.03;24.80;;;19.30;27.90;;;;;;5031882;28;20442;-74
2021/04/16 15:22:19;;;;;;;27.00;24.30;;;19.30;27.90;;;;;;5031506;28;20897;-74
2021/04/16 15:24:46;;;;;;;26.93;24.13;;;19.30;28.00;;;;;;5031904;28;20494;-74
2021/04/16 15:27:19;;;;;;;27.90;24.13;;;19.20;28.00;;;;;;5031496;28;20431;-74
2021/04/16 15:29:50;;;;;;;28.10;25.10;;;19.20;28.00;;;;;;5031302;28;20450;-74
2021/04/16 15:32:19;;;;;;;30.37;24.13;;;19.10;28.00;;;;;;5031676;28;20491;-74
2021/04/16 15:48:21;;;;;;;24.47;21.97;;;19.00;28.20;;;;;;5038293;28;20426;-73
2021/04/16 15:51:00;;;;;;;23.17;20.83;;;19.00;28.30;;;;;;5030235;28;20501;-73
2021/04/16 15:53:28;;;;;;;25.70;23.00;;;19.00;28.30;;;;;;5038184;28;20484;-73
2021/04/16 15:55:55;;;;;;;24.97;22.50;;;18.90;28.30;;;;;;5032018;28;20438;-74
2021/04/16 15:58:26;;;;;;;24.47;22.10;;;19.00;28.40;;;;;;5022625;28;20416;-73
2021/04/16 16:00:53;;;;;;;24.77;22.23;;;18.90;28.30;;;;;;5031265;28;20435;-74
2021/04/16 16:03:19;;;;;;;24.87;22.37;;;18.90;28.30;;;;;;5026582;28;20525;-72
2021/04/16 16:05:45;;;;;;;24.13;21.63;;;18.90;28.40;;;;;;5033794;28;20438;-72
2021/04/16 16:08:14;;;;;;;22.47;20.13;;;18.90;28.40;;;;;;5031243;28;20227;-75
2021/04/16 16:10:41;;;;;;;23.40;21.10;;;18.90;28.40;;;;;;5030278;28;20661;-72
2021/04/16 16:13:18;;;;;;;24.57;22.10;;;18.90;28.40;;;;;;5036541;28;20960;-72
2021/04/16 16:15:46;;;;;;;21.70;19.80;;;18.80;28.40;;;;;;5030225;28;20443;-73
2021/04/16 16:18:17;;;;;;;25.37;21.60;;;18.80;28.40;;;;;;5027354;28;20415;-75
2021/04/16 16:20:45;;;;;;;22.30;20.20;;;18.80;28.40;;;;;;5032977;28;20426;-75
2021/04/16 16:23:14;;;;;;;22.37;20.07;;;18.80;28.40;;;;;;5035181;28;20427;-76
2021/04/16 16:25:40;;;;;;;23.10;20.70;;;18.70;28.50;;;;;;5029084;28;20408;-72
2021/04/16 16:28:14;;;;;;;22.37;20.03;;;18.70;28.50;;;;;;5035807;28;20538;-76
2021/04/16 16:30:39;;;;;;;22.93;19.67;;;18.70;28.50;;;;;;5038777;28;20470;-73
2021/04/16 16:33:06;;;;;;;20.73;18.93;;;18.70;28.50;;;;;;5034859;28;20416;-76
2021/04/16 16:35:37;;;;;;;19.97;18.07;;;18.70;28.60;;;;;;5037250;28;20184;-77
2021/04/16 16:38:06;;;;;;;21.20;19.00;;;18.70;28.60;;;;;;5027381;28;20473;-75
2021/04/16 16:40:33;;;;;;;19.10;17.33;;;18.70;28.60;;;;;;5036555;28;20853;-72
2021/04/16 16:43:09;;;;;;;19.73;17.87;;;18.70;28.70;;;;;;5031923;28;20458;-75
2021/04/16 16:45:40;;;;;;;20.47;18.60;;;18.60;28.70;;;;;;5031166;28;20435;-76
2021/04/16 16:48:06;;;;;;;20.80;18.90;;;18.60;28.60;;;;;;5024345;28;20424;-75
2021/04/16 16:50:38;;;;;;;19.57;17.60;;;18.60;28.60;;;;;;5033534;28;20455;-74
2021/04/16 16:53:07;;;;;;;19.30;17.40;;;18.60;28.60;;;;;;5029275;28;20517;-72
2021/04/16 16:55:34;;;;;;;21.17;19.27;;;18.60;28.70;;;;;;5030027;28;20518;-74
2021/04/16 16:58:04;;;;;;;21.07;19.10;;;18.60;28.70;;;;;;5037471;28;20415;-72
2021/04/16 17:00:39;;;;;;;20.27;18.47;;;18.60;28.70;;;;;;5029844;28;20443;-73
2021/04/16 17:03:05;;;;;;;18.73;17.13;;;18.60;29.30;;;;;;5033418;28;20509;-73
2021/04/16 17:05:32;;;;;;;19.23;17.53;;;18.60;28.80;;;;;;5029683;28;21012;-74
2021/04/16 17:07:57;;;;;;;19.30;17.43;;;18.60;29.00;;;;;;5031248;28;20461;-73
2021/04/16 17:10:23;;;;;;;19.87;17.80;;;18.60;28.90;;;;;;5042280;28;20899;-75
2021/04/16 17:12:49;;;;;;;20.57;18.63;;;18.60;28.90;;;;;;5040016;28;20755;-73
2021/04/16 17:15:17;;;;;;;18.63;16.90;;;18.60;28.90;;;;;;5036544;28;20650;-74
2021/04/16 17:17:43;;;;;;;17.87;16.13;;;18.60;28.90;;;;;;5030120;28;20203;-74
2021/04/16 17:20:09;;;;;;;19.53;17.73;;;18.60;29.00;;;;;;5036049;28;20411;-73
2021/04/16 17:22:35;;;;;;;18.63;17.10;;;18.60;29.00;;;;;;5030165;28;20236;-73
2021/04/16 17:25:01;;;;;;;19.30;17.53;;;18.50;28.80;;;;;;5029795;28;20973;-74
2021/04/16 17:27:31;;;;;;;19.57;17.77;;;18.60;29.00;;;;;;5025887;28;20270;-74
2021/04/16 17:29:58;;;;;;;18.97;17.27;;;18.50;28.90;;;;;;5010153;28;20211;-72
2021/04/16 17:32:24;;;;;;;18.40;16.53;;;18.50;29.00;;;;;;5028789;28;20856;-73
2021/04/16 17:34:51;;;;;;;18.60;16.90;;;18.50;29.00;;;;;;5036721;28;20493;-74
2021/04/16 17:37:17;;;;;;;20.90;18.97;;;18.50;29.00;;;;;;5042823;28;20193;-75
2021/04/16 17:39:43;;;;;;;20.47;18.57;;;18.50;29.00;;;;;;5029817;28;20423;-74
2021/04/16 17:42:33;;;;;;;19.13;17.43;;;18.50;29.00;;;;;;5029653;28;20415;-73
2021/04/16 17:45:02;;;;;;;17.63;15.90;;;18.50;29.00;;;;;;5029859;28;20183;-74
2021/04/16 17:47:28;;;;;;;19.67;17.87;;;18.50;29.00;;;;;;5029579;28;21175;-74
2021/04/16 17:49:53;;;;;;;19.17;17.40;;;18.50;29.00;;;;;;5029445;28;20538;-75
2021/04/16 17:52:19;;;;;;;17.70;16.20;;;18.50;29.00;;;;;;5029728;28;20705;-74
2021/04/16 17:54:45;;;;;;;18.13;16.53;;;18.50;29.00;;;;;;5029651;28;20184;-73
2021/04/16 17:57:10;;;;;;;18.87;17.17;;;18.50;29.00;;;;;;5035302;28;20690;-73
2021/04/16 17:59:36;;;;;;;19.80;18.17;;;18.50;29.00;;;;;;5036887;28;20188;-72
2021/04/16 18:02:01;;;;;;;19.03;17.20;;;18.40;28.90;;;;;;5025926;28;20184;-72
2021/04/16 18:04:27;;;;;;;17.33;15.83;;;18.40;28.90;;;;;;5029262;28;20212;-74
2021/04/16 18:07:04;;;;;;;19.27;17.57;;;18.40;28.90;;;;;;5037543;28;20231;-75
2021/04/16 18:09:30;;;;;;;17.93;16.37;;;18.40;28.90;;;;;;5025005;28;20243;-75
2021/04/16 18:11:55;;;;;;;17.80;16.30;;;18.40;28.90;;;;;;5032402;28;20447;-73
2021/04/16 18:14:21;;;;;;;18.43;16.73;;;18.40;28.90;;;;;;5029204;28;20228;-73
2021/04/16 18:16:47;;;;;;;17.57;15.87;;;18.40;28.90;;;;;;5031860;28;20223;-72
2021/04/16 18:19:13;;;;;;;17.17;15.73;;;18.40;28.90;;;;;;5038918;28;20461;-72
2021/04/16 18:21:43;;;;;;;17.80;16.40;;;18.40;28.90;;;;;;5035879;28;20788;-76
2021/04/16 18:24:20;;;;;;;18.13;16.30;;;18.40;28.90;;;;;;5038651;28;20462;-71
2021/04/16 18:26:47;;;;;;;19.10;17.20;;;18.40;28.90;;;;;;5033378;28;20522;-72
2021/04/16 18:29:13;;;;;;;17.83;16.33;;;18.40;28.90;;;;;;5040533;28;21143;-71
2021/04/16 18:31:39;;;;;;;17.70;16.03;;;18.40;28.90;;;;;;5043346;28;20468;-73
2021/04/16 18:34:04;;;;;;;19.40;17.70;;;18.40;28.90;;;;;;5043392;28;20577;-73
2021/04/16 18:36:36;;;;;;;19.43;17.90;;;18.40;28.90;;;;;;5041413;28;20219;-72
2021/04/16 18:39:08;;;;;;;19.97;18.27;;;18.40;28.90;;;;;;5037808;28;20416;-72
2021/04/16 18:41:37;;;;;;;21.07;17.87;;;18.40;28.90;;;;;;5033389;28;20489;-72
2021/04/16 18:44:08;;;;;;;21.63;19.47;;;18.40;29.20;;;;;;5024362;28;20829;-72
2021/04/16 18:46:34;;;;;;;19.70;17.80;;;18.40;29.30;;;;;;5032153;28;20481;-73
2021/04/16 18:49:00;;;;;;;20.23;18.67;;;18.50;29.40;;;;;;5032300;28;20415;-72
2021/04/16 18:51:36;;;;;;;20.13;18.27;;;18.50;29.10;;;;;;5019099;28;20468;-73
2021/04/16 18:54:06;;;;;;;19.70;18.07;;;18.50;29.00;;;;;;5012606;28;20849;-73
2021/04/16 18:56:33;;;;;;;20.90;18.80;;;18.60;29.10;;;;;;5011603;28;20455;-73
2021/04/16 18:58:59;;;;;;;18.50;17.07;;;18.70;29.10;;;;;;5012493;28;20412;-73
2021/04/16 19:01:53;;;;;;;18.90;17.30;;;18.80;29.10;;;;;;5012469;28;20416;-73
2021/04/16 19:04:20;;;;;;;17.00;15.67;;;18.90;28.70;;;;;;5012715;28;20428;-73
2021/04/16 19:06:50;;;;;;;18.97;17.33;;;19.00;28.50;;;;;;5012179;28;20436;-73
2021/04/16 19:09:23;;;;;;;18.40;16.87;;;19.10;28.40;;;;;;5012112;28;20439;-71
2021/04/16 19:11:48;;;;;;;18.10;16.60;;;19.10;28.40;;;;;;5012101;28;20459;-71
2021/04/16 19:14:15;;;;;;;17.10;15.73;;;19.10;28.30;;;;;;5012215;28;20440;-72
2021/04/16 19:16:40;;;;;;;17.53;15.83;;;19.20;28.30;;;;;;5011770;28;20185;-72
2021/04/16 19:19:07;;;;;;;16.70;15.20;;;19.20;28.30;;;;;;5011985;28;20459;-72
2021/04/16 19:21:42;;;;;;;15.47;14.10;;;19.20;28.20;;;;;;5012064;28;20416;-72
2021/04/16 19:24:15;;;;;;;16.00;14.60;;;19.20;28.20;;;;;;5012034;28;20419;-72
2021/04/16 19:26:41;;;;;;;16.43;15.07;;;19.20;28.20;;;;;;5011554;28;20439;-72
2021/04/16 19:29:06;;;;;;;15.83;14.67;;;19.20;28.70;;;;;;5021837;28;20901;-72
2021/04/16 19:31:34;;;;;;;16.60;15.30;;;19.30;28.20;;;;;;5031549;28;20207;-72
2021/04/16 19:34:02;;;;;;;16.33;14.93;;;19.30;28.20;;;;;;5031275;28;20169;-72
2021/04/16 19:36:36;;;;;;;15.63;14.33;;;19.20;28.20;;;;;;5031362;28;20473;-72
2021/04/16 19:39:12;;;;;;;14.67;13.60;;;19.20;28.20;;;;;;5031502;28;20489;-72
2021/04/16 19:41:37;;;;;;;17.50;14.23;;;19.20;28.10;;;;;;5031330;28;20412;-72
2021/04/16 19:44:03;;;;;;;15.43;14.23;;;19.20;28.20;;;;;;5031402;28;20407;-72
2021/04/16 19:46:29;;;;;;;16.40;15.10;;;19.10;28.10;;;;;;5030816;28;20185;-72
2021/04/16 19:52:30;;;;;;;14.77;13.47;;;19.10;28.20;;;;;;5031587;28;20420;-72
2021/04/16 20:05:31;;;;;;;14.53;13.43;;;19.00;28.30;;;;;;5031160;28;20407;-72
2021/04/16 20:11:42;;;;;;;13.37;12.30;;;18.90;28.40;;;;;;5037645;28;20510;-72
2021/04/16 20:18:57;;;;;;;13.97;12.77;;;18.90;28.50;;;;;;5038044;28;20473;-73
2021/04/16 20:21:43;;;;;;;13.23;12.13;;;18.90;28.60;;;;;;5030755;28;20506;-73
2021/04/16 20:24:09;;;;;;;13.13;12.13;;;18.80;28.50;;;;;;5030575;28;20419;-73
2021/04/16 20:26:51;;;;;;;13.67;12.70;;;18.80;28.60;;;;;;5030802;28;20439;-73
2021/04/16 20:29:17;;;;;;;13.03;12.03;;;18.80;28.70;;;;;;5029852;28;20998;-73
2021/04/16 20:31:50;;;;;;;13.40;12.40;;;18.70;28.60;;;;;;5031454;28;20454;-73
2021/04/16 20:34:35;;;;;;;12.80;11.80;;;18.70;28.70;;;;;;5038499;28;20952;-73
2021/04/16 20:37:03;;;;;;;13.63;12.53;;;18.70;28.70;;;;;;5038123;28;20853;-72
2021/04/16 20:39:32;;;;;;;13.33;12.40;;;18.70;28.70;;;;;;5029981;28;20494;-72
2021/04/16 20:41:58;;;;;;;12.83;11.77;;;18.70;28.70;;;;;;5030411;28;20419;-72
2021/04/16 20:44:24;;;;;;;13.10;12.00;;;18.70;28.80;;;;;;5030584;28;20736;-72
2021/04/16 20:46:58;;;;;;;12.50;11.50;;;18.70;28.80;;;;;;5029705;28;20561;-72
2021/04/16 20:49:27;;;;;;;13.90;12.90;;;18.60;28.80;;;;;;5035515;28;20259;-72
2021/04/16 20:52:03;;;;;;;12.50;11.50;;;18.60;28.70;;;;;;5030420;28;20420;-72